Time;durP1;ratioP1;P1;durP2;ratioP2;P2;SDS_P1;SDS_P2;PMS_P1;PMS_P2;Temp;Humidity;BMP_temperature;BMP_pressure;BME280_temperature;BME280_humidity;BME280_pressure;Samples;Min_cycle;Max_cycle;Signal;HPM_P1;HPM_P2
2021/01/04 00:00:51;;;;;;;9.85;6.50;;;4.40;90.80;;;4.79;73.69;100446.56;4975281;28;20130;-79
2021/01/04 00:03:57;;;;;;;8.85;6.65;;;4.50;90.50;;;4.72;73.62;100434.66;4975894;28;20081;-80
2021/01/04 00:06:46;;;;;;;9.98;7.25;;;4.40;90.70;;;4.73;74.29;100430.97;4975975;28;20093;-79
2021/01/04 00:09:35;;;;;;;10.52;6.97;;;4.40;91.10;;;4.77;73.75;100437.75;4975464;28;20047;-80
2021/01/04 00:12:09;;;;;;;8.88;6.68;;;4.40;91.00;;;4.80;73.83;100437.47;4975501;28;20110;-80
2021/01/04 00:15:05;;;;;;;11.48;7.32;;;4.40;91.20;;;4.70;74.07;100437.53;4975433;28;20039;-80
2021/01/04 00:18:19;;;;;;;10.15;7.32;;;4.40;91.30;;;4.73;73.96;100430.97;4975123;28;20074;-79
2021/01/04 00:20:57;;;;;;;10.00;7.28;;;4.40;90.60;;;4.71;74.46;100435.66;4958048;28;20192;-79
2021/01/04 00:23:37;;;;;;;9.68;7.38;;;4.40;90.70;;;4.74;74.07;100437.22;4986209;28;20077;-81
2021/01/04 00:26:09;;;;;;;11.87;8.47;;;4.40;90.60;;;4.72;74.31;100428.44;4994272;28;20038;-79
2021/01/04 00:28:39;;;;;;;9.90;7.20;;;4.40;91.10;;;4.77;74.06;100434.22;4994610;28;20039;-79
2021/01/04 00:31:12;;;;;;;10.27;7.40;;;4.30;91.10;;;4.69;74.10;100435.81;4994561;28;20080;-79
2021/01/04 00:33:43;;;;;;;10.18;7.10;;;4.40;90.70;;;4.74;74.13;100438.09;4994235;28;20058;-80
2021/01/04 00:36:19;;;;;;;10.88;7.32;;;4.30;90.70;;;4.73;74.05;100425.59;4994162;28;20061;-79
2021/01/04 00:39:46;;;;;;;11.20;7.50;;;4.30;90.90;;;4.73;73.74;100430.13;4984107;28;20623;-79
2021/01/04 00:42:33;;;;;;;9.70;7.20;;;4.30;91.30;;;4.74;73.59;100430.00;4958142;28;20097;-80
2021/01/04 00:45:12;;;;;;;10.52;6.88;;;4.30;91.00;;;4.76;73.45;100424.44;4977117;28;20487;-80
2021/01/04 00:47:54;;;;;;;10.50;7.40;;;4.30;91.10;;;4.75;73.67;100423.59;4978803;28;20081;-79
2021/01/04 00:50:32;;;;;;;10.50;7.53;;;4.30;90.90;;;4.73;73.72;100422.06;4979273;28;20066;-80
2021/01/04 00:53:06;;;;;;;9.93;7.45;;;4.40;90.50;;;4.77;73.63;100415.34;4979121;28;20501;-80
2021/01/04 00:55:59;;;;;;;10.18;7.70;;;4.40;90.50;;;4.72;73.46;100417.66;4979309;28;20142;-79
2021/01/04 00:59:02;;;;;;;11.20;8.13;;;4.40;90.60;;;4.70;74.10;100421.34;4978797;28;20506;-79
2021/01/04 01:01:44;;;;;;;9.85;7.43;;;4.40;90.40;;;4.73;73.71;100422.88;4960932;28;20079;-80
2021/01/04 01:04:25;;;;;;;10.73;7.68;;;4.40;90.20;;;4.70;73.69;100432.13;4979291;28;20046;-79
2021/01/04 01:07:02;;;;;;;12.18;7.95;;;4.40;90.00;;;4.75;73.10;100428.13;4978354;28;20492;-79
2021/01/04 01:09:34;;;;;;;10.23;7.78;;;4.40;90.00;;;4.73;73.63;100436.38;4967455;28;20133;-80
2021/01/04 01:12:15;;;;;;;10.57;7.68;;;4.40;90.10;;;4.76;73.46;100432.53;4997951;28;20046;-80
2021/01/04 01:14:47;;;;;;;10.47;7.50;;;4.40;90.10;;;4.77;72.97;100432.38;4998125;28;20077;-80
2021/01/04 01:18:14;;;;;;;10.57;7.80;;;4.40;90.00;;;4.76;72.95;100430.69;4998027;28;20136;-80
2021/01/04 01:20:49;;;;;;;9.98;7.50;;;4.30;89.80;;;4.77;72.88;100437.75;4998150;28;20755;-80
2021/01/04 01:23:15;;;;;;;12.25;8.52;;;4.30;90.10;;;4.70;73.55;100442.03;4997607;28;20847;-80
2021/01/04 01:25:50;;;;;;;12.65;7.85;;;4.40;90.50;;;4.72;73.44;100433.81;4985689;28;20049;-79
2021/01/04 01:29:09;;;;;;;11.68;8.68;;;4.40;90.10;;;4.69;73.46;100435.81;4978591;28;20046;-79
2021/01/04 01:32:20;;;;;;;11.95;7.97;;;4.30;90.30;;;4.73;73.55;100440.91;4978436;28;20046;-80
2021/01/04 01:35:07;;;;;;;10.88;7.85;;;4.30;90.50;;;4.75;73.47;100445.16;4978139;28;20074;-79
2021/01/04 01:38:34;;;;;;;11.13;8.15;;;4.40;90.40;;;4.76;73.70;100451.38;4977501;28;20062;-80
2021/01/04 01:41:38;;;;;;;12.85;8.82;;;4.50;90.40;;;4.70;73.46;100448.31;4888118;29;20055;-79
2021/01/04 01:44:17;;;;;;;10.68;7.95;;;4.40;90.40;;;4.67;73.29;100445.91;4997365;28;20053;-80
2021/01/04 01:46:50;;;;;;;12.18;8.45;;;4.40;90.20;;;4.71;73.41;100449.16;4997482;28;20116;-80
2021/01/04 01:49:41;;;;;;;13.27;9.05;;;4.40;90.20;;;4.75;73.20;100455.09;4997396;28;20074;-80
2021/01/04 01:52:24;;;;;;;12.07;9.02;;;4.30;90.70;;;4.68;73.35;100447.63;4997444;28;20050;-79
2021/01/04 01:55:34;;;;;;;12.40;8.88;;;4.20;90.60;;;4.64;74.08;100446.19;4997443;28;20054;-80
2021/01/04 01:58:52;;;;;;;11.90;8.50;;;4.20;90.90;;;4.63;73.84;100457.13;4974771;28;20078;-79
2021/01/04 02:01:30;;;;;;;12.45;8.95;;;4.20;91.30;;;4.58;74.13;100452.16;4977703;28;20038;-80
2021/01/04 02:04:04;;;;;;;12.70;8.93;;;4.30;91.50;;;4.63;74.02;100451.75;4978050;28;20053;-79
2021/01/04 02:07:09;;;;;;;12.00;8.73;;;4.20;91.10;;;4.64;74.13;100456.97;4977255;28;20073;-79
2021/01/04 02:09:45;;;;;;;11.13;8.70;;;4.20;91.30;;;4.63;73.76;100444.50;4977605;28;20039;-80
2021/01/04 02:12:22;;;;;;;11.48;8.32;;;4.20;91.00;;;4.65;73.92;100453.28;4977232;28;20054;-79
2021/01/04 02:15:00;;;;;;;12.98;9.30;;;4.20;91.30;;;4.66;73.79;100451.44;4979142;28;20054;-79
2021/01/04 02:17:59;;;;;;;13.57;9.70;;;4.30;91.50;;;4.65;73.57;100455.97;4977418;28;20142;-80
2021/01/04 02:21:17;;;;;;;12.35;9.15;;;4.20;91.60;;;4.63;74.03;100447.19;4977727;28;20126;-80
2021/01/04 02:23:50;;;;;;;14.60;10.18;;;4.20;91.40;;;4.65;73.77;100458.69;4977159;28;20061;-79
2021/01/04 02:26:22;;;;;;;13.00;9.55;;;4.20;91.30;;;4.66;74.03;100449.59;4977037;28;20094;-80
2021/01/04 02:29:06;;;;;;;13.15;9.52;;;4.20;91.20;;;4.65;73.93;100453.28;4976953;28;20042;-79
2021/01/04 02:31:35;;;;;;;14.60;10.48;;;4.20;91.50;;;4.63;73.91;100455.28;4977746;28;20053;-79
2021/01/04 02:34:05;;;;;;;13.75;9.88;;;4.20;91.50;;;4.65;73.88;100452.44;4978412;28;20057;-79
2021/01/04 02:36:37;;;;;;;12.65;9.45;;;4.20;91.30;;;4.62;74.18;100450.88;4976598;28;20109;-79
2021/01/04 02:39:09;;;;;;;12.98;9.68;;;4.30;91.50;;;4.59;74.41;100456.59;4977093;28;20126;-79
2021/01/04 02:41:54;;;;;;;14.10;10.15;;;4.20;91.30;;;4.62;74.29;100442.78;4977358;28;20066;-79
2021/01/04 02:44:23;;;;;;;14.35;10.00;;;4.30;91.40;;;4.62;74.01;100450.88;4976783;28;20096;-80
2021/01/04 02:47:19;;;;;;;14.55;10.05;;;4.30;91.30;;;4.66;74.40;100441.53;4976881;28;20129;-80
2021/01/04 02:49:55;;;;;;;13.43;9.68;;;4.30;91.30;;;4.69;73.71;100452.00;4983921;28;20120;-80
2021/01/04 02:52:43;;;;;;;14.15;10.20;;;4.30;91.20;;;4.62;73.84;100447.34;4996373;28;20038;-80
2021/01/04 02:55:18;;;;;;;14.60;10.32;;;4.20;91.30;;;4.63;73.99;100446.34;4996447;28;20038;-79
2021/01/04 02:57:54;;;;;;;13.70;10.00;;;4.20;91.30;;;4.62;74.04;100445.47;4996142;28;20117;-79
2021/01/04 03:00:24;;;;;;;15.18;9.48;;;4.20;91.00;;;4.63;73.91;100447.19;4994716;28;20133;-79
2021/01/04 03:02:58;;;;;;;13.73;9.90;;;4.10;90.80;;;4.63;73.67;100455.28;4995410;28;20445;-80
2021/01/04 03:05:26;;;;;;;15.38;9.80;;;4.10;91.30;;;4.64;74.05;100448.03;4996122;28;20042;-80
2021/01/04 03:07:57;;;;;;;12.38;9.30;;;4.10;91.40;;;4.60;73.70;100452.03;4995578;28;20129;-79
2021/01/04 03:10:28;;;;;;;15.60;10.18;;;4.10;91.70;;;4.59;74.31;100453.88;4982653;28;20073;-80
2021/01/04 03:13:09;;;;;;;13.38;9.63;;;4.20;91.40;;;4.58;74.08;100457.56;4976561;28;20089;-79
2021/01/04 03:15:56;;;;;;;12.98;9.32;;;4.10;91.30;;;4.58;73.70;100449.47;4958496;28;20051;-79
2021/01/04 03:18:29;;;;;;;12.30;9.02;;;4.10;91.30;;;4.61;73.71;100459.13;4977518;28;20472;-79
2021/01/04 03:20:56;;;;;;;12.52;9.00;;;4.10;91.50;;;4.61;73.92;100454.59;4978734;28;20067;-79
2021/01/04 03:23:23;;;;;;;13.35;9.35;;;4.00;91.30;;;4.50;74.22;100458.28;4995770;28;20125;-79
2021/01/04 03:25:55;;;;;;;12.00;8.63;;;4.00;91.70;;;4.48;74.11;100459.44;4995273;28;20099;-79
2021/01/04 03:28:25;;;;;;;;;;;4.10;91.60;;;4.50;74.32;100457.47;4996524;28;20050;-80
2021/01/04 03:30:53;;;;;;;12.00;8.57;;;4.10;91.60;;;4.53;74.52;100461.69;4995997;28;20047;-79
2021/01/04 03:33:20;;;;;;;11.98;8.80;;;4.00;91.40;;;4.49;74.02;100456.63;4995573;28;20137;-80
2021/01/04 03:35:47;;;;;;;13.05;8.70;;;4.10;91.90;;;4.50;74.29;100460.16;4992892;28;20069;-80
2021/01/04 03:38:15;;;;;;;12.55;9.25;;;4.10;91.90;;;4.44;74.45;100456.19;4992001;28;20048;-79
2021/01/04 03:40:41;;;;;;;13.77;9.30;;;4.10;91.70;;;4.43;74.65;100457.19;4995493;28;20774;-80
2021/01/04 03:43:08;;;;;;;12.15;9.45;;;4.00;91.60;;;4.49;74.23;100461.13;4994855;28;20124;-79
2021/01/04 03:45:36;;;;;;;13.35;9.25;;;4.00;91.80;;;4.55;74.29;100454.31;4994299;28;20148;-79
2021/01/04 03:48:05;;;;;;;12.93;9.55;;;4.10;91.70;;;4.58;74.16;100460.25;4990065;28;20150;-79
2021/01/04 03:50:32;;;;;;;13.93;10.35;;;4.10;91.70;;;4.54;74.20;100453.47;4975817;28;20129;-79
2021/01/04 03:52:59;;;;;;;12.98;9.38;;;4.10;91.50;;;4.49;73.82;100450.34;4958194;28;20074;-79
2021/01/04 03:55:25;;;;;;;14.82;10.57;;;4.10;91.70;;;4.45;74.21;100448.97;4975736;28;20468;-80
2021/01/04 03:57:52;;;;;;;15.55;11.10;;;4.00;91.70;;;4.45;74.61;100460.56;4975520;28;20082;-80
2021/01/04 04:00:20;;;;;;;15.10;11.52;;;4.10;91.30;;;4.46;74.09;100450.66;4975507;28;20131;-79
2021/01/04 04:02:49;;;;;;;15.02;10.73;;;4.00;91.20;;;4.47;74.42;100445.13;4975165;28;20139;-79
2021/01/04 04:05:18;;;;;;;16.23;11.52;;;4.00;91.50;;;4.48;74.41;100449.50;4976240;28;20137;-79
2021/01/04 04:07:46;;;;;;;15.27;11.15;;;4.10;91.90;;;4.45;74.85;100454.34;4993897;28;20125;-79
2021/01/04 04:10:16;;;;;;;17.30;11.43;;;4.00;91.90;;;4.40;74.35;100451.22;4995248;28;20069;-79
2021/01/04 04:12:43;;;;;;;16.48;11.40;;;4.10;91.70;;;4.44;74.26;100452.66;4994622;28;20050;-79
2021/01/04 04:15:14;;;;;;;15.52;11.18;;;4.20;91.30;;;4.45;74.80;100446.25;4977496;28;20690;-79
2021/01/04 04:17:41;;;;;;;15.88;11.15;;;4.00;91.60;;;4.42;74.23;100454.66;4994542;28;20054;-79
2021/01/04 04:20:12;;;;;;;14.23;10.88;;;4.00;91.80;;;4.43;74.50;100448.25;4994150;28;20053;-80
2021/01/04 04:22:39;;;;;;;16.95;11.32;;;4.00;91.90;;;4.45;74.21;100448.97;4975015;28;20138;-79
2021/01/04 04:25:08;;;;;;;15.73;10.95;;;4.00;91.90;;;4.48;73.96;100449.50;4975408;28;20050;-79
2021/01/04 04:27:35;;;;;;;16.08;11.13;;;4.00;91.90;;;4.37;74.35;100449.69;4974863;28;20063;-79
2021/01/04 04:30:05;;;;;;;14.90;11.02;;;4.00;91.70;;;4.43;74.24;100456.34;4975393;28;20138;-79
2021/01/04 04:32:31;;;;;;;15.25;10.48;;;4.00;91.80;;;4.42;74.61;100460.03;4975062;28;20494;-79
2021/01/04 04:34:58;;;;;;;16.25;10.73;;;3.90;91.90;;;4.36;74.94;100450.69;4975313;28;20141;-79
2021/01/04 04:37:26;;;;;;;14.27;10.32;;;4.00;92.10;;;4.38;74.84;100458.63;4974368;28;20432;-80
2021/01/04 04:39:52;;;;;;;14.63;10.77;;;4.00;92.20;;;4.40;74.77;100460.19;4994375;28;20496;-79
2021/01/04 04:42:20;;;;;;;14.23;10.25;;;4.00;92.20;;;4.39;75.30;100463.03;4994279;28;20077;-79
2021/01/04 04:44:57;;;;;;;13.40;10.13;;;4.10;92.50;;;4.43;75.20;100464.41;4994364;28;20066;-79
2021/01/04 04:48:01;;;;;;;15.50;10.95;;;4.00;92.10;;;4.46;74.77;100461.44;4993751;28;20125;-79
2021/01/04 04:50:58;;;;;;;12.98;9.68;;;4.00;91.70;;;4.47;74.48;100460.44;4994374;28;20054;-79
2021/01/04 04:54:13;;;;;;;15.55;10.70;;;4.00;91.90;;;4.39;74.75;100463.03;4993773;28;20533;-80
2021/01/04 04:57:49;;;;;;;13.65;9.55;;;4.00;92.30;;;4.40;75.27;100462.88;4993280;28;20476;-79
2021/01/04 05:00:37;;;;;;;16.15;10.55;;;4.10;92.30;;;4.41;74.99;100464.56;4994424;28;20070;-79
2021/01/04 05:03:18;;;;;;;12.88;9.90;;;4.10;92.30;;;4.40;75.12;100468.25;4994066;28;20050;-79
2021/01/04 05:06:07;;;;;;;13.23;9.93;;;4.10;92.20;;;4.46;75.34;100470.38;4994186;28;20046;-80
2021/01/04 05:09:09;;;;;;;13.85;9.85;;;4.10;92.20;;;4.51;75.15;100464.53;4994338;28;20085;-80
2021/01/04 05:11:40;;;;;;;14.15;9.85;;;4.10;92.20;;;4.52;75.08;100462.72;4994085;28;20125;-80
2021/01/04 05:14:17;;;;;;;14.50;10.07;;;4.10;92.50;;;4.48;75.22;100460.28;4985480;28;20156;-79
2021/01/04 05:17:03;;;;;;;14.18;10.27;;;4.20;92.60;;;4.47;75.35;100457.75;4957458;28;20583;-79
2021/01/04 05:20:12;;;;;;;13.85;9.73;;;4.20;92.20;;;4.50;75.51;100462.84;4975682;28;20403;-79
2021/01/04 05:23:33;;;;;;;13.70;9.18;;;4.20;92.10;;;4.51;75.25;100459.13;4970349;28;20071;-80
2021/01/04 05:26:54;;;;;;;14.20;9.50;;;4.20;91.80;;;4.49;75.05;100466.53;4974870;28;20062;-80
2021/01/04 05:30:14;;;;;;;12.25;9.05;;;4.20;91.60;;;4.48;74.95;100462.16;4974140;28;20130;-81
2021/01/04 05:33:13;;;;;;;15.65;9.70;;;4.20;91.80;;;4.45;74.94;100462.44;4963453;28;20090;-81
2021/01/04 05:35:40;;;;;;;12.27;9.25;;;4.20;91.40;;;4.50;75.09;100474.47;4985340;28;20070;-80
2021/01/04 05:38:19;;;;;;;14.15;10.10;;;4.30;91.50;;;4.53;74.92;100473.31;4997088;28;20046;-81
2021/01/04 05:41:14;;;;;;;13.23;9.55;;;4.30;91.60;;;4.52;74.99;100460.84;4991824;28;20116;-81
2021/01/04 05:43:55;;;;;;;14.15;9.52;;;4.30;91.50;;;4.44;75.31;100472.38;4977794;28;20075;-81
2021/01/04 05:46:27;;;;;;;16.13;9.05;;;4.30;91.70;;;4.47;75.36;100473.91;4978134;28;20383;-81
2021/01/04 05:49:09;;;;;;;13.45;9.57;;;4.30;91.70;;;4.53;74.73;100476.00;4977641;28;20066;-81
2021/01/04 05:51:39;;;;;;;12.48;9.10;;;4.30;91.20;;;4.58;74.71;100471.03;4978146;28;20054;-81
2021/01/04 05:54:07;;;;;;;14.13;9.77;;;4.30;91.40;;;4.60;74.65;100468.19;4978025;28;20055;-81
2021/01/04 05:56:34;;;;;;;13.63;9.48;;;4.30;91.50;;;4.52;74.67;100476.19;4977579;28;20134;-81
2021/01/04 05:59:11;;;;;;;14.13;9.73;;;4.20;91.40;;;4.55;74.84;100476.75;4960225;28;20133;-81
2021/01/04 06:01:39;;;;;;;14.65;9.48;;;4.20;91.30;;;4.56;74.33;100477.59;4992135;28;20062;-81
2021/01/04 06:04:07;;;;;;;13.00;9.50;;;4.20;91.30;;;4.50;74.76;100487.09;4996996;28;20034;-81
2021/01/04 06:06:51;;;;;;;12.73;9.15;;;4.20;91.40;;;4.52;74.29;100479.72;4994968;28;20136;-81
2021/01/04 06:09:19;;;;;;;13.40;9.10;;;4.20;91.40;;;4.52;74.93;100477.03;4997350;28;20074;-81
2021/01/04 06:11:52;;;;;;;14.25;9.30;;;4.20;91.50;;;4.53;74.62;100483.25;4996557;28;20449;-81
2021/01/04 06:14:20;;;;;;;14.43;10.32;;;4.20;91.50;;;4.54;74.72;100487.66;4997464;28;20078;-81
2021/01/04 06:16:48;;;;;;;13.38;9.45;;;4.20;91.30;;;4.53;74.05;100489.47;4980733;28;20042;-81
2021/01/04 06:19:22;;;;;;;13.95;9.23;;;4.10;91.30;;;4.50;74.49;100489.78;4977165;28;20085;-81
2021/01/04 06:21:52;;;;;;;12.52;9.25;;;4.10;91.60;;;4.52;74.41;100501.28;4977545;28;20074;-80
2021/01/04 06:24:29;;;;;;;13.70;10.07;;;4.20;91.70;;;4.47;75.22;100495.47;4977062;28;20051;-80
2021/01/04 06:27:01;;;;;;;14.90;9.38;;;4.10;91.90;;;4.50;74.93;100495.19;4977886;28;20050;-81
2021/01/04 06:29:40;;;;;;;14.15;9.63;;;4.10;92.10;;;4.50;75.36;100500.56;4978274;28;20074;-80
2021/01/04 06:32:21;;;;;;;13.40;9.45;;;4.20;92.00;;;4.55;74.67;100501.00;4977114;28;20050;-81
2021/01/04 06:34:55;;;;;;;13.50;9.20;;;4.20;91.80;;;4.55;74.72;100503.69;4976907;28;20050;-81
2021/01/04 06:37:26;;;;;;;14.40;9.80;;;4.20;92.20;;;4.52;75.21;100508.53;4977130;28;20108;-81
2021/01/04 06:40:09;;;;;;;13.68;10.25;;;4.20;92.30;;;4.53;74.74;100511.03;4977119;28;20038;-81
2021/01/04 06:42:41;;;;;;;14.43;9.98;;;4.20;92.10;;;4.55;74.68;100509.09;4976792;28;20106;-81
2021/01/04 06:45:25;;;;;;;13.27;9.27;;;4.20;91.60;;;4.53;74.42;100515.59;4977085;28;20071;-80
2021/01/04 06:48:06;;;;;;;14.77;9.70;;;4.20;92.10;;;4.51;75.34;100518.44;4975603;28;20050;-78
2021/01/04 06:50:45;;;;;;;12.68;8.80;;;4.20;92.40;;;4.56;74.78;100516.16;4976237;28;20070;-79
2021/01/04 06:54:05;;;;;;;14.88;9.80;;;4.20;92.10;;;4.58;74.70;100524.94;4975925;28;20070;-79
2021/01/04 06:57:12;;;;;;;14.75;10.07;;;4.10;92.00;;;4.59;74.99;100520.41;4968711;28;20141;-78
2021/01/04 07:00:27;;;;;;;12.50;9.30;;;4.20;91.80;;;4.58;74.35;100524.94;4975626;28;20066;-79
2021/01/04 07:03:33;;;;;;;13.35;9.13;;;4.20;91.40;;;4.55;74.71;100519.88;4976067;28;20049;-78
2021/01/04 07:06:40;;;;;;;13.13;9.48;;;4.20;91.50;;;4.54;74.42;100528.94;4979609;28;20085;-78
2021/01/04 07:09:53;;;;;;;14.60;9.95;;;4.10;91.80;;;4.54;74.16;100531.63;4995198;28;20132;-78
2021/01/04 07:12:32;;;;;;;15.65;10.73;;;4.10;91.80;;;4.49;74.55;100536.59;4961840;28;20141;-78
2021/01/04 07:15:19;;;;;;;14.93;9.70;;;4.10;92.00;;;4.52;74.74;100536.31;4973622;28;20137;-78
2021/01/04 07:18:34;;;;;;;15.35;10.07;;;4.10;91.80;;;4.55;74.52;100535.16;4973388;28;20126;-78
2021/01/04 07:21:37;;;;;;;15.75;10.00;;;4.10;91.60;;;4.55;74.34;100535.16;4955943;28;20089;-78
2021/01/04 07:24:16;;;;;;;13.32;9.45;;;4.00;92.30;;;4.52;74.26;100538.16;4982297;28;20094;-78
2021/01/04 07:27:00;;;;;;;17.50;10.43;;;4.00;92.00;;;4.53;74.41;100535.31;4991318;28;20130;-80
2021/01/04 07:29:50;;;;;;;14.82;10.30;;;4.10;92.00;;;4.54;74.61;100547.78;4986518;28;20122;-79
2021/01/04 07:32:24;;;;;;;12.35;9.07;;;4.10;92.20;;;4.56;74.33;100545.81;4976251;28;20070;-80
2021/01/04 07:34:58;;;;;;;14.35;9.90;;;4.10;92.00;;;4.58;74.29;100545.66;4976710;28;20081;-80
2021/01/04 07:37:41;;;;;;;14.55;10.07;;;4.10;92.10;;;4.59;74.84;100553.59;4975684;28;20070;-80
2021/01/04 07:40:48;;;;;;;18.02;10.75;;;4.10;92.00;;;4.55;74.87;100556.72;4976652;28;20079;-80
2021/01/04 07:43:51;;;;;;;14.32;10.15;;;4.20;92.00;;;4.57;74.60;100557.44;4976442;28;20129;-79
2021/01/04 07:47:26;;;;;;;15.13;10.07;;;4.20;92.10;;;4.58;74.60;100554.59;4980619;28;20100;-80
2021/01/04 07:50:59;;;;;;;14.82;9.90;;;4.20;91.80;;;4.58;74.39;100553.75;4988796;28;20133;-80
2021/01/04 07:54:23;;;;;;;14.18;10.02;;;4.20;91.40;;;4.60;74.71;100555.28;4994105;28;20088;-79
2021/01/04 07:57:28;;;;;;;15.60;10.48;;;4.30;91.80;;;4.58;74.66;100559.13;4994527;28;20045;-78
2021/01/04 08:00:47;;;;;;;15.23;10.10;;;4.30;91.80;;;4.55;74.56;100562.97;4991999;28;20076;-79
2021/01/04 08:04:17;;;;;;;14.80;9.85;;;4.20;91.40;;;4.54;74.45;100569.34;4959508;28;20132;-79
2021/01/04 08:07:25;;;;;;;14.25;10.05;;;4.20;91.30;;;4.54;74.77;100565.81;4964845;28;20093;-78
2021/01/04 08:10:17;;;;;;;14.93;10.48;;;4.20;91.50;;;4.52;74.91;100563.25;4889079;29;20076;-78
2021/01/04 08:13:20;;;;;;;17.08;11.25;;;4.20;91.60;;;4.55;74.46;100573.75;4993427;28;20070;-78
2021/01/04 08:15:50;;;;;;;14.52;10.77;;;4.40;91.50;;;4.61;74.40;100567.78;4993127;28;20050;-78
2021/01/04 08:18:21;;;;;;;15.48;10.60;;;4.20;91.30;;;4.60;74.88;100576.00;4993266;28;20053;-78
2021/01/04 08:20:56;;;;;;;15.60;10.85;;;4.30;91.90;;;4.58;74.54;100568.06;4986101;28;20484;-78
2021/01/04 08:23:52;;;;;;;15.95;10.82;;;4.30;91.60;;;4.56;74.55;100575.44;4992596;28;20077;-78
2021/01/04 08:26:38;;;;;;;15.82;10.48;;;4.20;90.80;;;4.58;74.30;100591.47;4992758;28;20495;-79
2021/01/04 08:29:12;;;;;;;15.43;10.82;;;4.20;91.40;;;4.59;74.23;100579.69;4991585;28;20133;-78
2021/01/04 08:32:08;;;;;;;16.13;10.68;;;4.20;91.10;;;4.57;73.68;100581.69;4993328;28;20449;-79
2021/01/04 08:34:43;;;;;;;16.10;10.27;;;4.20;90.80;;;4.55;73.92;100581.84;4986334;28;20130;-78
2021/01/04 08:37:12;;;;;;;17.05;10.73;;;4.20;91.10;;;4.56;73.69;100586.22;4973083;28;20130;-78
2021/01/04 08:39:45;;;;;;;16.20;10.45;;;4.20;90.90;;;4.57;73.79;100593.34;4983197;28;20097;-78
2021/01/04 08:42:32;;;;;;;15.70;10.90;;;4.20;90.80;;;4.56;73.91;100588.91;4994347;28;20066;-79
2021/01/04 08:45:07;;;;;;;16.60;10.70;;;4.10;90.90;;;4.58;73.93;100592.31;4994033;28;20058;-79
2021/01/04 08:47:42;;;;;;;17.27;11.07;;;4.10;91.10;;;4.56;74.04;100597.00;4993526;28;20046;-79
2021/01/04 08:50:33;;;;;;;15.52;11.13;;;4.20;91.30;;;4.58;74.13;100600.41;4994100;28;20042;-78
2021/01/04 08:53:22;;;;;;;17.45;11.60;;;4.10;91.30;;;4.52;73.43;100594.75;4994286;28;20709;-78
2021/01/04 08:55:52;;;;;;;15.80;10.82;;;4.10;90.90;;;4.51;74.13;100593.88;4993187;28;20082;-78
2021/01/04 08:58:39;;;;;;;17.13;11.07;;;4.10;91.30;;;4.52;74.27;100592.91;4993475;28;20124;-78
2021/01/04 09:01:19;;;;;;;16.48;11.07;;;4.00;91.30;;;4.54;73.73;100593.63;4992276;28;20057;-78
2021/01/04 09:03:46;;;;;;;16.40;11.15;;;4.10;91.60;;;4.53;73.96;100591.06;4991988;28;20537;-78
2021/01/04 09:06:26;;;;;;;15.80;10.75;;;4.10;91.50;;;4.52;74.06;100592.91;4994431;28;20065;-78
2021/01/04 09:09:05;;;;;;;16.47;11.17;;;4.10;91.50;;;4.50;74.05;100597.59;4978591;28;20058;-83
2021/01/04 09:11:39;;;;;;;18.85;11.38;;;4.10;91.30;;;4.50;74.52;100594.91;4998912;28;20057;-86
2021/01/04 09:14:38;;;;;;;16.48;11.02;;;4.10;91.40;;;4.53;74.04;100597.28;4978994;28;20054;-84
2021/01/04 09:17:23;;;;;;;16.17;10.82;;;4.00;91.60;;;4.50;74.54;100603.81;4997044;28;20121;-85
2021/01/04 09:20:03;;;;;;;17.80;11.73;;;4.10;91.80;;;4.53;74.31;100607.22;4998299;28;20046;-85
2021/01/04 09:22:30;;;;;;;17.05;10.57;;;4.20;91.80;;;4.55;74.25;100610.63;4996775;28;20057;-85
2021/01/04 09:24:57;;;;;;;15.18;10.45;;;4.20;91.40;;;4.54;74.25;100604.38;4996990;28;20055;-84
2021/01/04 09:27:32;;;;;;;13.80;9.82;;;4.20;91.00;;;4.56;73.98;100606.94;4979484;28;20049;-84
2021/01/04 09:30:07;;;;;;;15.82;10.77;;;4.20;91.00;;;4.53;74.24;100610.75;4960274;28;20093;-84
2021/01/04 09:32:39;;;;;;;14.77;9.80;;;4.20;91.30;;;4.57;73.84;100604.13;4977055;28;20687;-83
2021/01/04 09:35:24;;;;;;;13.98;9.68;;;4.20;90.90;;;4.56;74.14;100605.09;4977893;28;20043;-84
2021/01/04 09:38:00;;;;;;;15.00;9.85;;;4.20;90.90;;;4.55;74.38;100606.09;4977058;28;20066;-84
2021/01/04 09:40:28;;;;;;;13.63;8.93;;;4.20;91.00;;;4.56;74.50;100605.09;4990144;28;20085;-84
2021/01/04 09:43:06;;;;;;;15.68;9.35;;;4.30;91.10;;;4.58;74.13;100605.81;4996987;28;20575;-86
2021/01/04 09:45:33;;;;;;;14.48;10.00;;;4.20;90.70;;;4.58;73.98;100603.09;4993799;28;20097;-85
2021/01/04 09:48:06;;;;;;;13.13;9.02;;;4.30;91.40;;;4.53;74.08;100602.69;4978319;28;20387;-82
2021/01/04 09:50:37;;;;;;;13.73;8.82;;;4.20;90.60;;;4.55;73.94;100611.50;4998257;28;20070;-83
2021/01/04 09:53:16;;;;;;;12.95;8.57;;;4.20;90.40;;;4.54;74.12;100607.09;4999438;28;20069;-81
2021/01/04 09:55:45;;;;;;;16.30;9.13;;;4.20;90.70;;;4.56;73.80;100602.41;4998509;28;20054;-82
2021/01/04 09:58:17;;;;;;;14.23;9.07;;;4.20;91.20;;;4.57;74.52;100597.84;4998265;28;20054;-82
2021/01/04 10:00:45;;;;;;;12.30;8.18;;;4.20;91.40;;;4.59;74.42;100606.63;4996255;28;20138;-82
2021/01/04 10:03:17;;;;;;;12.90;8.65;;;4.30;91.30;;;4.57;74.18;100604.13;4988736;28;20134;-81
2021/01/04 10:05:46;;;;;;;12.45;8.85;;;4.30;91.00;;;4.56;74.53;100605.09;4996466;28;20050;-81
2021/01/04 10:08:15;;;;;;;12.45;8.23;;;4.30;91.10;;;4.61;74.16;100608.22;4997906;28;20042;-84
2021/01/04 10:10:55;;;;;;;13.23;8.70;;;4.40;90.90;;;4.60;74.03;100601.13;4997757;28;20053;-81
2021/01/04 10:13:25;;;;;;;11.70;8.00;;;4.40;90.50;;;4.59;73.46;100604.81;4992461;28;20126;-81
2021/01/04 10:15:55;;;;;;;11.32;7.60;;;4.30;90.10;;;4.57;73.57;100603.25;4980458;28;20046;-81
2021/01/04 10:18:37;;;;;;;12.15;7.07;;;4.30;90.50;;;4.56;74.34;100601.56;4995282;28;20510;-81
2021/01/04 10:21:10;;;;;;;12.93;7.63;;;4.30;90.70;;;4.62;74.00;100603.66;4978666;28;20429;-81
2021/01/04 10:23:50;;;;;;;13.02;7.90;;;4.30;90.80;;;4.60;74.16;100609.19;4978748;28;20411;-82
2021/01/04 10:26:16;;;;;;;10.90;6.95;;;4.30;90.70;;;4.60;73.98;100613.75;4978207;28;20051;-81
2021/01/04 10:28:44;;;;;;;10.82;7.03;;;4.30;90.70;;;4.65;73.91;100612.31;4978429;28;20078;-81
2021/01/04 10:31:21;;;;;;;11.95;6.78;;;4.40;90.30;;;4.64;73.34;100605.22;4978863;28;20051;-82
2021/01/04 10:33:48;;;;;;;10.43;6.85;;;4.40;89.90;;;4.62;73.21;100609.06;4978201;28;20118;-82
2021/01/04 10:36:22;;;;;;;11.77;6.82;;;4.30;89.60;;;4.59;73.73;100609.34;4979407;28;20121;-81
2021/01/04 10:38:59;;;;;;;9.93;6.63;;;4.20;90.40;;;4.59;73.59;100601.25;4978045;28;20114;-81
2021/01/04 10:41:30;;;;;;;9.02;6.22;;;4.30;90.20;;;4.62;73.65;100598.28;4960536;28;20078;-81
2021/01/04 10:44:10;;;;;;;10.02;6.35;;;4.30;90.30;;;4.59;74.29;100595.88;4977768;28;20458;-81
2021/01/04 10:46:41;;;;;;;10.57;6.88;;;4.40;90.00;;;4.60;74.13;100602.97;4977475;28;20042;-81
2021/01/04 10:49:11;;;;;;;11.38;7.10;;;4.30;90.50;;;4.60;73.99;100601.13;4977273;28;20063;-81
2021/01/04 10:51:49;;;;;;;9.85;6.35;;;4.30;90.60;;;4.61;73.62;100600.13;4976610;28;20260;-81
2021/01/04 10:54:20;;;;;;;10.65;7.00;;;4.40;90.30;;;4.61;74.15;100599.28;4978425;28;20043;-80
2021/01/04 10:57:02;;;;;;;11.18;6.90;;;4.30;90.90;;;4.64;74.17;100591.75;4975953;28;20074;-81
2021/01/04 10:59:39;;;;;;;12.32;7.18;;;4.40;90.80;;;4.65;73.87;100582.69;4977550;28;20069;-80
2021/01/04 11:02:07;;;;;;;11.70;6.78;;;4.40;90.30;;;4.59;74.83;100588.66;4996332;28;20438;-81
2021/01/04 11:04:35;;;;;;;12.15;7.57;;;4.40;90.70;;;4.57;74.63;100587.94;4997111;28;20057;-81
2021/01/04 11:07:19;;;;;;;11.90;7.13;;;4.40;90.80;;;4.64;74.44;100582.81;4996306;28;20444;-80
2021/01/04 11:09:47;;;;;;;12.65;8.07;;;4.50;90.70;;;4.65;74.74;100584.53;4996477;28;20046;-80
2021/01/04 11:12:17;;;;;;;11.80;7.32;;;4.50;90.80;;;4.66;73.80;100584.38;4994826;28;20116;-80
2021/01/04 11:14:59;;;;;;;13.13;8.30;;;4.50;90.00;;;4.69;74.05;100586.78;4996032;28;20049;-80
2021/01/04 11:17:29;;;;;;;13.90;8.60;;;4.40;90.50;;;4.68;74.39;100584.22;4994989;28;20285;-80